createdAt,value
2023-04-06T00:00:15.470Z,5.97
2023-04-06T00:02:41.946Z,6.88
2023-04-06T00:05:08.716Z,5.75
2023-04-06T00:07:35.396Z,5.63
2023-04-06T00:10:02.210Z,6.00
2023-04-06T00:12:28.613Z,5.07
2023-04-06T00:14:55.218Z,4.88
2023-04-06T00:17:21.730Z,5.28
2023-04-06T00:19:48.121Z,5.63
2023-04-06T00:22:14.592Z,5.65
2023-04-06T00:24:41.061Z,5.57
2023-04-06T00:27:07.488Z,5.15
2023-04-06T00:29:33.893Z,6.43
2023-04-06T00:32:00.533Z,6.22
2023-04-06T00:34:27.002Z,5.72
2023-04-06T00:36:53.444Z,5.75
2023-04-06T00:39:21.083Z,6.18
2023-04-06T00:41:52.448Z,5.93
2023-04-06T00:44:19.680Z,5.80
2023-04-06T00:46:46.202Z,5.35
2023-04-06T00:49:12.627Z,5.80
2023-04-06T00:51:39.102Z,5.10
2023-04-06T00:54:06.065Z,6.55
2023-04-06T00:56:34.472Z,5.38
2023-04-06T00:59:01.407Z,5.35
2023-04-06T01:01:30.534Z,6.00
2023-04-06T01:04:01.245Z,5.90
2023-04-06T01:06:27.711Z,5.40
2023-04-06T01:08:59.184Z,5.72
2023-04-06T01:11:27.228Z,5.72
2023-04-06T01:13:54.311Z,6.15
2023-04-06T01:16:32.403Z,5.53
2023-04-06T01:19:12.956Z,5.78
2023-04-06T01:21:43.988Z,5.63
2023-04-06T01:24:27.531Z,5.95
2023-04-06T01:27:02.336Z,6.30
2023-04-06T01:29:37.172Z,5.50
2023-04-06T01:32:06.405Z,5.28
2023-04-06T01:34:37.997Z,5.32
2023-04-06T01:37:06.155Z,6.38
2023-04-06T01:39:32.635Z,5.78
2023-04-06T01:42:01.746Z,5.68
2023-04-06T01:44:31.168Z,5.50
2023-04-06T01:47:06.730Z,5.32
2023-04-06T01:49:33.380Z,5.05
2023-04-06T01:52:00.607Z,6.15
2023-04-06T01:54:27.072Z,6.75
2023-04-06T01:57:11.811Z,6.18
2023-04-06T01:59:43.484Z,6.38
2023-04-06T02:02:18.517Z,6.28
2023-04-06T02:04:54.403Z,6.45
2023-04-06T02:07:20.971Z,6.82
2023-04-06T02:09:47.528Z,6.53
2023-04-06T02:12:22.186Z,7.18
2023-04-06T02:14:48.625Z,6.20
2023-04-06T02:17:15.404Z,5.80
2023-04-06T02:19:41.941Z,6.35
2023-04-06T02:22:08.401Z,6.47
2023-04-06T02:24:34.816Z,5.70
2023-04-06T02:27:01.526Z,6.30
2023-04-06T02:29:27.987Z,6.00
2023-04-06T02:31:54.802Z,6.72
2023-04-06T02:34:21.842Z,6.97
2023-04-06T02:36:51.833Z,5.65
2023-04-06T02:39:18.534Z,7.28
2023-04-06T02:41:44.955Z,5.53
2023-04-06T02:44:14.942Z,5.72
2023-04-06T02:46:43.395Z,6.22
2023-04-06T02:49:10.000Z,6.03
2023-04-06T02:51:36.610Z,5.63
2023-04-06T02:54:15.039Z,6.95
2023-04-06T02:56:41.481Z,5.30
2023-04-06T02:59:08.266Z,6.30
2023-04-06T03:01:35.333Z,5.95
2023-04-06T03:04:04.618Z,6.25
2023-04-06T03:06:31.381Z,6.07
2023-04-06T03:09:04.724Z,6.07
2023-04-06T03:11:32.971Z,5.80
2023-04-06T03:14:00.141Z,6.32
2023-04-06T03:16:26.774Z,6.03
2023-04-06T03:18:53.544Z,6.53
2023-04-06T03:21:20.566Z,7.22
2023-04-06T03:23:51.932Z,6.75
2023-04-06T03:26:18.701Z,7.32
2023-04-06T03:28:45.296Z,6.90
2023-04-06T03:31:11.871Z,6.60
2023-04-06T03:33:46.315Z,7.47
2023-04-06T03:36:21.854Z,6.43
2023-04-06T03:38:48.404Z,7.15
2023-04-06T03:41:15.232Z,6.63
2023-04-06T03:43:48.430Z,7.00
2023-04-06T03:46:14.866Z,7.50
2023-04-06T03:48:41.315Z,6.53
2023-04-06T03:51:07.736Z,6.60
2023-04-06T03:53:34.162Z,6.85
2023-04-06T03:56:02.732Z,7.03
2023-04-06T03:58:30.605Z,7.78
2023-04-06T04:00:57.083Z,7.15
2023-04-06T04:03:24.617Z,6.97
2023-04-06T04:05:51.948Z,6.55
2023-04-06T04:08:18.741Z,6.75
2023-04-06T04:10:45.814Z,6.70
2023-04-06T04:13:13.167Z,6.63
2023-04-06T04:15:41.660Z,6.78
2023-04-06T04:18:09.476Z,7.00
2023-04-06T04:20:36.184Z,7.63
2023-04-06T04:23:02.652Z,6.63
2023-04-06T04:25:32.072Z,7.38
2023-04-06T04:27:58.741Z,7.15
2023-04-06T04:30:25.179Z,7.57
2023-04-06T04:32:51.692Z,8.77
2023-04-06T04:35:21.346Z,8.32
2023-04-06T04:37:47.864Z,8.02
2023-04-06T04:40:14.433Z,7.55
2023-04-06T04:42:52.197Z,7.43
2023-04-06T04:45:30.068Z,7.35
2023-04-06T04:47:58.895Z,8.45
2023-04-06T04:50:30.785Z,7.82
2023-04-06T04:52:58.481Z,8.07
2023-04-06T04:55:27.035Z,8.00
2023-04-06T04:57:56.297Z,7.53
2023-04-06T05:00:31.625Z,7.22
2023-04-06T05:02:59.274Z,8.13
2023-04-06T05:05:28.689Z,8.27
2023-04-06T05:07:55.273Z,7.93
2023-04-06T05:10:36.330Z,9.18
2023-04-06T05:13:03.464Z,8.20
2023-04-06T05:15:29.994Z,8.13
2023-04-06T05:18:02.444Z,8.75
2023-04-06T05:20:32.723Z,8.87
2023-04-06T05:22:59.863Z,9.02
2023-04-06T05:25:26.682Z,8.85
2023-04-06T05:27:56.658Z,8.60
2023-04-06T05:30:28.934Z,8.75
2023-04-06T05:32:55.617Z,8.48
2023-04-06T05:35:24.461Z,7.95
2023-04-06T05:37:54.703Z,8.67
2023-04-06T05:40:24.215Z,7.43
2023-04-06T05:42:51.193Z,7.15
2023-04-06T05:45:19.348Z,8.00
2023-04-06T05:47:51.228Z,7.43
2023-04-06T05:50:27.614Z,7.70
2023-04-06T05:52:54.096Z,7.70
2023-04-06T05:55:22.693Z,8.10
2023-04-06T05:57:56.728Z,7.72
2023-04-06T06:00:23.211Z,8.25
2023-04-06T06:03:00.375Z,7.45
2023-04-06T06:05:30.013Z,8.05
2023-04-06T06:08:02.973Z,7.60
2023-04-06T06:10:30.187Z,7.32
2023-04-06T06:12:56.895Z,7.38
2023-04-06T06:15:23.411Z,6.68
2023-04-06T06:17:49.866Z,6.22
2023-04-06T06:20:17.311Z,8.15
2023-04-06T06:22:44.359Z,7.88
2023-04-06T06:25:16.621Z,7.15
2023-04-06T06:27:45.474Z,7.20
2023-04-06T06:30:12.164Z,6.43
2023-04-06T06:32:41.578Z,6.60
2023-04-06T06:35:09.130Z,6.35
2023-04-06T06:37:35.625Z,7.72
2023-04-06T06:40:02.934Z,6.95
2023-04-06T06:42:31.539Z,7.38
2023-04-06T06:45:08.286Z,6.65
2023-04-06T06:47:34.770Z,7.43
2023-04-06T06:50:01.284Z,7.65
2023-04-06T06:52:27.839Z,7.30
2023-04-06T06:54:56.413Z,7.82
2023-04-06T06:57:23.962Z,7.75
2023-04-06T06:59:51.008Z,7.70
2023-04-06T07:02:19.394Z,7.97
2023-04-06T07:04:49.301Z,8.68
2023-04-06T07:07:16.384Z,9.65
2023-04-06T07:09:43.238Z,7.90
2023-04-06T07:12:09.729Z,8.38
2023-04-06T07:14:37.704Z,8.75
2023-04-06T07:17:04.222Z,8.90
2023-04-06T07:19:31.847Z,9.18
2023-04-06T07:21:58.402Z,8.13
2023-04-06T07:24:27.427Z,9.30
2023-04-06T07:26:53.867Z,8.88
2023-04-06T07:29:20.629Z,8.50
2023-04-06T07:31:47.599Z,7.80
2023-04-06T07:34:15.527Z,8.65
2023-04-06T07:36:42.218Z,7.90
2023-04-06T07:39:08.827Z,7.63
2023-04-06T07:41:36.158Z,7.22
2023-04-06T07:44:02.630Z,6.63
2023-04-06T07:46:29.208Z,7.43
2023-04-06T07:48:58.253Z,7.18
2023-04-06T07:51:26.503Z,7.90
2023-04-06T07:53:53.098Z,6.75
2023-04-06T07:56:19.571Z,6.10
2023-04-06T07:58:45.996Z,4.63
2023-04-06T08:01:12.405Z,5.25
2023-04-06T08:03:39.014Z,4.90
2023-04-06T08:06:06.101Z,5.18
2023-04-06T08:08:32.778Z,4.70
2023-04-06T08:11:01.483Z,5.70
2023-04-06T08:13:29.067Z,5.63
2023-04-06T08:15:55.905Z,5.97
2023-04-06T08:18:23.395Z,6.00
2023-04-06T08:20:50.649Z,5.80
2023-04-06T08:23:17.046Z,5.32
2023-04-06T08:25:44.163Z,5.10
2023-04-06T08:28:10.621Z,4.50
2023-04-06T08:30:38.166Z,4.97
2023-04-06T08:33:04.577Z,5.18
2023-04-06T08:35:31.019Z,4.35
2023-04-06T08:37:57.933Z,4.00
2023-04-06T08:40:24.372Z,4.80
2023-04-06T08:42:54.969Z,4.75
2023-04-06T08:45:22.329Z,4.53
2023-04-06T08:47:51.090Z,4.07
2023-04-06T08:50:18.130Z,4.15
2023-04-06T08:52:49.293Z,3.83
2023-04-06T08:55:16.336Z,4.20
2023-04-06T08:57:44.352Z,4.30
2023-04-06T09:00:12.047Z,3.28
2023-04-06T09:02:44.601Z,3.22
2023-04-06T09:05:11.364Z,3.28
2023-04-06T09:07:38.333Z,3.15
2023-04-06T09:10:08.221Z,3.00
2023-04-06T09:12:35.522Z,3.40
2023-04-06T09:15:02.993Z,3.13
2023-04-06T09:17:34.557Z,3.13
2023-04-06T09:20:01.975Z,3.20
2023-04-06T09:22:39.756Z,2.75
2023-04-06T09:25:07.191Z,2.95
2023-04-06T09:27:35.551Z,2.40
2023-04-06T09:30:07.621Z,2.83
2023-04-06T09:32:46.604Z,2.85
2023-04-06T09:35:13.497Z,3.20
2023-04-06T09:37:39.916Z,2.60
2023-04-06T09:40:08.316Z,2.70
2023-04-06T09:42:35.901Z,2.90
2023-04-06T09:45:03.750Z,3.20
2023-04-06T09:47:34.260Z,3.15
2023-04-06T09:50:01.728Z,2.80
2023-04-06T09:52:38.264Z,3.53
2023-04-06T09:55:06.294Z,3.80
2023-04-06T09:57:51.360Z,2.92
2023-04-06T10:00:20.246Z,3.13
2023-04-06T10:02:59.121Z,2.78
2023-04-06T10:05:38.415Z,2.58
2023-04-06T10:08:09.513Z,3.88
2023-04-06T10:10:36.187Z,3.17
2023-04-06T10:13:03.053Z,3.20
2023-04-06T10:15:30.836Z,3.15
2023-04-06T10:18:01.622Z,3.42
2023-04-06T10:20:51.397Z,3.55
2023-04-06T10:23:32.008Z,3.72
2023-04-06T10:26:00.522Z,3.60
2023-04-06T10:28:32.083Z,3.33
2023-04-06T10:31:00.249Z,3.25
2023-04-06T10:33:27.585Z,3.60
2023-04-06T10:35:54.937Z,3.58
2023-04-06T10:38:22.947Z,3.92
2023-04-06T10:40:49.792Z,3.70
2023-04-06T10:43:23.433Z,3.63
2023-04-06T10:45:57.770Z,4.00
2023-04-06T10:48:25.038Z,3.88
2023-04-06T10:50:53.431Z,3.75
2023-04-06T10:53:25.047Z,2.95
2023-04-06T10:55:52.737Z,3.35
2023-04-06T10:58:19.879Z,3.60
2023-04-06T11:00:50.654Z,3.83
2023-04-06T11:03:18.925Z,3.53
2023-04-06T11:05:48.203Z,3.85
2023-04-06T11:08:44.161Z,3.10
2023-04-06T11:11:19.488Z,3.65
2023-04-06T11:13:58.003Z,3.90
2023-04-06T11:16:32.622Z,3.20
2023-04-06T11:18:59.014Z,3.47
2023-04-06T11:21:49.342Z,3.67
2023-04-06T11:24:20.527Z,4.30
2023-04-06T11:26:50.032Z,3.40
2023-04-06T11:29:18.593Z,3.17
2023-04-06T11:31:50.079Z,4.18
2023-04-06T11:34:21.092Z,3.42
2023-04-06T11:39:20.389Z,3.28
2023-04-06T11:41:54.023Z,3.47
2023-04-06T11:44:32.948Z,3.00
2023-04-06T11:46:59.802Z,3.50
2023-04-06T11:49:30.417Z,3.17
2023-04-06T11:51:58.325Z,3.55
2023-04-06T11:54:34.484Z,3.40
2023-04-06T11:57:01.658Z,3.67
2023-04-06T11:59:28.332Z,4.03
2023-04-06T12:01:54.817Z,3.90
2023-04-06T12:04:21.667Z,3.15
2023-04-06T12:06:49.171Z,3.47
2023-04-06T12:09:16.443Z,3.13
2023-04-06T12:11:42.919Z,3.40
2023-04-06T12:14:09.624Z,2.90
2023-04-06T12:16:36.464Z,2.90
2023-04-06T12:19:04.251Z,3.13
2023-04-06T12:21:34.925Z,3.83
2023-04-06T12:24:02.284Z,3.30
2023-04-06T12:26:29.065Z,2.97
2023-04-06T12:28:55.464Z,3.97
2023-04-06T12:31:23.665Z,3.60
2023-04-06T12:33:51.278Z,3.80
2023-04-06T12:36:20.139Z,3.00
2023-04-06T12:38:48.653Z,3.78
2023-04-06T12:41:15.780Z,3.70
2023-04-06T12:43:42.921Z,3.58
2023-04-06T12:46:09.531Z,3.83
2023-04-06T12:48:36.502Z,3.75
2023-04-06T12:51:04.770Z,3.95
2023-04-06T12:53:31.713Z,3.33
2023-04-06T12:55:59.123Z,3.45
2023-04-06T12:58:27.685Z,3.05
2023-04-06T13:00:54.134Z,2.78
2023-04-06T13:03:22.074Z,3.20
2023-04-06T13:05:49.835Z,3.30
2023-04-06T13:08:17.079Z,3.40
2023-04-06T13:10:51.753Z,3.10
2023-04-06T13:13:19.050Z,4.40
2023-04-06T13:15:45.985Z,3.05
2023-04-06T13:18:12.511Z,3.67
2023-04-06T13:20:38.955Z,3.60
2023-04-06T13:23:05.393Z,2.80
2023-04-06T13:25:33.619Z,3.08
2023-04-06T13:28:00.300Z,3.33
2023-04-06T13:30:26.984Z,3.40
2023-04-06T13:32:53.394Z,3.28
2023-04-06T13:35:19.863Z,3.47
2023-04-06T13:37:46.278Z,3.15
2023-04-06T13:40:12.865Z,3.92
2023-04-06T13:42:41.666Z,3.60
2023-04-06T13:45:08.860Z,3.05
2023-04-06T13:47:35.874Z,3.65
2023-04-06T13:50:02.340Z,3.10
2023-04-06T13:52:28.735Z,3.50
2023-04-06T13:54:55.301Z,3.10
2023-04-06T13:57:21.747Z,3.28
2023-04-06T13:59:48.914Z,3.70
2023-04-06T14:02:15.572Z,3.10
2023-04-06T14:04:42.132Z,3.10
2023-04-06T14:07:08.578Z,3.40
2023-04-06T14:09:35.463Z,3.25
2023-04-06T14:12:01.906Z,3.17
2023-04-06T14:14:28.505Z,3.20
2023-04-06T14:16:55.547Z,3.35
2023-04-06T14:19:22.561Z,3.42
2023-04-06T14:21:49.806Z,3.15
2023-04-06T14:24:16.949Z,2.95
2023-04-06T14:26:43.739Z,2.75
2023-04-06T14:29:10.608Z,3.00
2023-04-06T14:31:37.942Z,3.13
2023-04-06T14:34:04.754Z,2.90
2023-04-06T14:36:38.809Z,3.08
2023-04-06T14:39:06.809Z,3.00
2023-04-06T14:41:34.460Z,3.38
2023-04-06T14:44:01.266Z,2.85
2023-04-06T14:46:28.286Z,4.00
2023-04-06T14:48:58.676Z,3.65
2023-04-06T14:51:28.107Z,3.38
2023-04-06T14:53:55.065Z,2.88
2023-04-06T14:56:23.001Z,3.05
2023-04-06T14:58:51.650Z,3.20
2023-04-06T15:01:19.414Z,3.40
2023-04-06T15:03:46.123Z,3.20
2023-04-06T15:06:16.143Z,3.75
2023-04-06T15:08:46.242Z,3.53
2023-04-06T15:11:13.618Z,3.40
2023-04-06T15:13:40.867Z,3.45
2023-04-06T15:16:07.793Z,3.78
2023-04-06T15:18:35.823Z,3.30
2023-04-06T15:21:02.501Z,3.95
2023-04-06T15:23:31.038Z,3.47
2023-04-06T15:25:58.724Z,3.67
2023-04-06T15:28:25.256Z,3.33
2023-04-06T15:30:51.938Z,3.33
2023-04-06T15:33:21.094Z,3.10
2023-04-06T15:35:47.623Z,3.83
2023-04-06T15:38:14.165Z,3.35
2023-04-06T15:40:48.594Z,3.70
2023-04-06T15:43:15.951Z,3.60
2023-04-06T15:45:42.524Z,3.22
2023-04-06T15:48:09.486Z,3.35
2023-04-06T15:50:36.549Z,3.20
2023-04-06T15:53:03.041Z,3.40
2023-04-06T15:55:29.461Z,3.40
2023-04-06T15:57:56.100Z,2.78
2023-04-06T16:00:22.776Z,3.58
2023-04-06T16:02:49.348Z,3.42
2023-04-06T16:05:15.916Z,3.15
2023-04-06T16:07:43.025Z,3.45
2023-04-06T16:10:10.031Z,3.03
2023-04-06T16:12:36.422Z,2.90
2023-04-06T16:15:02.945Z,3.80
2023-04-06T16:17:29.463Z,3.33
2023-04-06T16:19:56.129Z,3.70
2023-04-06T16:22:22.537Z,3.85
2023-04-06T16:24:48.915Z,4.03
2023-04-06T16:27:15.677Z,2.92
2023-04-06T16:29:42.080Z,3.50
2023-04-06T16:32:11.043Z,3.72
2023-04-06T16:34:37.712Z,3.42
2023-04-06T16:37:04.123Z,2.97
2023-04-06T16:39:30.608Z,3.50
2023-04-06T16:41:57.445Z,3.38
2023-04-06T16:44:23.975Z,3.10
2023-04-06T16:46:50.952Z,3.58
2023-04-06T16:49:19.380Z,3.80
2023-04-06T16:51:45.960Z,3.55
2023-04-06T16:54:12.374Z,4.15
2023-04-06T16:56:38.774Z,3.33
2023-04-06T16:59:08.028Z,3.33
2023-04-06T17:01:34.520Z,3.53
2023-04-06T17:04:02.003Z,3.80
2023-04-06T17:06:28.583Z,5.20
2023-04-06T17:08:55.025Z,4.07
2023-04-06T17:11:27.775Z,3.97
2023-04-06T17:13:54.850Z,4.13
2023-04-06T17:16:21.504Z,4.07
2023-04-06T17:18:47.944Z,3.88
2023-04-06T17:21:14.604Z,3.75
2023-04-06T17:23:41.640Z,3.28
2023-04-06T17:26:08.314Z,3.17
2023-04-06T17:28:34.770Z,4.00
2023-04-06T17:31:01.325Z,3.95
2023-04-06T17:33:28.278Z,3.65
2023-04-06T17:35:54.730Z,3.70
2023-04-06T17:38:21.426Z,3.25
2023-04-06T17:40:47.831Z,3.67
2023-04-06T17:43:14.247Z,3.25
2023-04-06T17:45:40.734Z,3.47
2023-04-06T17:48:07.730Z,3.45
2023-04-06T17:50:38.877Z,3.42
2023-04-06T17:53:05.610Z,2.78
2023-04-06T17:55:32.011Z,2.67
2023-04-06T17:57:58.410Z,2.95
2023-04-06T18:00:25.641Z,2.60
2023-04-06T18:02:53.630Z,3.47
2023-04-06T18:05:21.271Z,2.78
2023-04-06T18:07:48.480Z,2.80
2023-04-06T18:10:15.041Z,2.40
2023-04-06T18:12:41.496Z,2.75
2023-04-06T18:15:08.165Z,2.25
2023-04-06T18:17:34.906Z,3.05
2023-04-06T18:20:01.422Z,3.20
2023-04-06T18:22:28.453Z,3.08
2023-04-06T18:24:54.925Z,3.15
2023-04-06T18:27:21.681Z,3.25
2023-04-06T18:29:48.104Z,3.00
2023-04-06T18:32:16.591Z,2.88
2023-04-06T18:34:43.164Z,3.15
2023-04-06T18:37:09.675Z,3.40
2023-04-06T18:39:36.236Z,3.60
2023-04-06T18:42:03.155Z,3.50
2023-04-06T18:44:31.579Z,3.70
2023-04-06T18:46:58.214Z,3.40
2023-04-06T18:49:24.684Z,3.10
2023-04-06T18:51:51.212Z,3.42
2023-04-06T18:54:17.615Z,3.50
2023-04-06T18:56:44.009Z,3.47
2023-04-06T18:59:10.654Z,3.50
2023-04-06T19:01:40.785Z,3.38
2023-04-06T19:04:07.429Z,3.13
2023-04-06T19:06:33.949Z,3.30
2023-04-06T19:09:00.379Z,3.42
2023-04-06T19:11:27.276Z,3.38
2023-04-06T19:13:53.890Z,4.03
2023-04-06T19:16:20.619Z,3.45
2023-04-06T19:18:47.061Z,3.00
2023-04-06T19:21:21.525Z,3.28
2023-04-06T19:23:49.518Z,3.58
2023-04-06T19:26:17.060Z,3.28
2023-04-06T19:28:44.388Z,3.80
2023-04-06T19:31:13.002Z,4.03
2023-04-06T19:33:40.413Z,4.38
2023-04-06T19:36:07.719Z,4.13
2023-04-06T19:38:34.619Z,4.10
2023-04-06T19:41:01.741Z,3.70
2023-04-06T19:43:28.269Z,4.10
2023-04-06T19:45:54.727Z,4.10
2023-04-06T19:48:21.262Z,4.25
2023-04-06T19:50:47.723Z,4.43
2023-04-06T19:53:14.166Z,4.45
2023-04-06T19:55:40.701Z,4.25
2023-04-06T19:58:07.126Z,4.15
2023-04-06T20:00:33.583Z,4.78
2023-04-06T20:03:00.281Z,4.35
2023-04-06T20:05:26.954Z,4.65
2023-04-06T20:07:53.458Z,4.60
2023-04-06T20:10:19.863Z,5.05
2023-04-06T20:12:46.306Z,5.07
2023-04-06T20:15:12.760Z,4.70
2023-04-06T20:17:39.225Z,4.15
2023-04-06T20:20:06.254Z,4.85
2023-04-06T20:22:32.653Z,4.45
2023-04-06T20:24:59.080Z,5.13
2023-04-06T20:27:25.549Z,5.10
2023-04-06T20:29:52.074Z,4.28
2023-04-06T20:32:20.997Z,5.00
2023-04-06T20:34:48.294Z,4.95
2023-04-06T20:37:15.163Z,4.70
2023-04-06T20:39:41.874Z,5.22
2023-04-06T20:42:08.559Z,5.75
2023-04-06T20:44:35.623Z,5.00
2023-04-06T20:47:03.628Z,5.35
2023-04-06T20:49:30.181Z,5.32
2023-04-06T20:51:57.194Z,4.95
2023-04-06T20:54:23.638Z,5.75
2023-04-06T20:56:50.227Z,5.35
2023-04-06T20:59:16.639Z,5.15
2023-04-06T21:01:43.369Z,5.22
2023-04-06T21:04:10.040Z,4.70
2023-04-06T21:06:36.628Z,5.68
2023-04-06T21:09:03.553Z,5.25
2023-04-06T21:11:29.990Z,5.25
2023-04-06T21:13:56.501Z,5.30
2023-04-06T21:16:23.126Z,5.07
2023-04-06T21:18:49.571Z,6.05
2023-04-06T21:21:15.975Z,5.43
2023-04-06T21:23:42.370Z,5.90
2023-04-06T21:26:12.140Z,5.32
2023-04-06T21:28:38.855Z,5.60
2023-04-06T21:31:08.792Z,6.53
2023-04-06T21:33:35.402Z,5.40
2023-04-06T21:36:08.417Z,5.40
2023-04-06T21:38:35.224Z,5.47
2023-04-06T21:41:01.683Z,5.93
2023-04-06T21:43:28.103Z,5.45
2023-04-06T21:45:54.617Z,5.15
2023-04-06T21:48:21.031Z,5.53
2023-04-06T21:50:47.480Z,5.50
2023-04-06T21:53:13.938Z,5.25
2023-04-06T21:55:45.996Z,5.45
2023-04-06T21:58:12.617Z,5.55
2023-04-06T22:00:39.197Z,5.93
2023-04-06T22:03:05.756Z,4.82
2023-04-06T22:05:32.695Z,5.75
2023-04-06T22:08:02.032Z,13.00
2023-04-06T22:10:29.261Z,6.55
2023-04-06T22:12:55.841Z,6.35
2023-04-06T22:15:22.309Z,5.03
2023-04-06T22:17:48.730Z,6.03
2023-04-06T22:20:15.595Z,5.63
2023-04-06T22:22:42.067Z,5.05
2023-04-06T22:25:08.923Z,5.38
2023-04-06T22:27:35.543Z,6.05
2023-04-06T22:30:02.594Z,5.57
2023-04-06T22:32:29.167Z,6.38
2023-04-06T22:34:55.765Z,6.00
2023-04-06T22:37:22.198Z,5.40
2023-04-06T22:39:48.598Z,5.65
2023-04-06T22:42:14.998Z,5.30
2023-04-06T22:44:41.425Z,5.32
2023-04-06T22:47:07.915Z,6.18
2023-04-06T22:49:34.344Z,5.20
2023-04-06T22:52:00.806Z,4.93
2023-04-06T22:54:27.206Z,6.05
2023-04-06T22:56:53.796Z,6.03
2023-04-06T22:59:20.627Z,5.25
2023-04-06T23:01:47.088Z,5.38
2023-04-06T23:04:13.615Z,5.57
2023-04-06T23:06:40.075Z,5.90
2023-04-06T23:09:06.484Z,5.15
2023-04-06T23:11:33.211Z,5.88
2023-04-06T23:13:59.610Z,5.78
2023-04-06T23:16:26.398Z,5.60
2023-04-06T23:18:52.820Z,5.82
2023-04-06T23:21:19.204Z,4.97
2023-04-06T23:23:45.921Z,5.80
2023-04-06T23:26:12.367Z,5.57
2023-04-06T23:28:38.744Z,5.70
2023-04-06T23:31:05.179Z,6.20
2023-04-06T23:33:31.565Z,5.53
2023-04-06T23:35:57.961Z,5.53
2023-04-06T23:38:24.456Z,5.90
2023-04-06T23:40:51.254Z,5.75
2023-04-06T23:43:17.645Z,5.40
2023-04-06T23:45:44.062Z,5.30
2023-04-06T23:48:10.767Z,5.88
2023-04-06T23:50:37.786Z,6.13
2023-04-06T23:53:04.704Z,6.10
2023-04-06T23:55:31.590Z,5.93
2023-04-06T23:57:57.985Z,5.82
